Time;durP1;ratioP1;P1;durP2;ratioP2;P2;SDS_P1;SDS_P2;PMS_P1;PMS_P2;Temp;Humidity;BMP_temperature;BMP_pressure;BME280_temperature;BME280_humidity;BME280_pressure;Samples;Min_cycle;Max_cycle;Signal;HPM_P1;HPM_P2
2023/05/24 00:02:19;;;;;;;12.75;2.33;;;10.30;99.90;;;;;;5029116;28;20501;-70
2023/05/24 00:04:44;;;;;;;7.38;1.45;;;10.20;99.90;;;;;;5013668;28;20036;-72
2023/05/24 00:07:10;;;;;;;10.15;1.48;;;10.20;99.90;;;;;;5013563;28;20544;-72
2023/05/24 00:09:36;;;;;;;9.82;2.15;;;10.20;99.90;;;;;;5013518;28;20076;-72
2023/05/24 00:12:02;;;;;;;11.13;2.13;;;10.20;99.90;;;;;;5013413;28;20034;-71
2023/05/24 00:14:27;;;;;;;10.07;2.47;;;10.20;99.90;;;;;;5028638;28;20034;-71
2023/05/24 00:16:53;;;;;;;8.93;2.47;;;10.10;99.90;;;;;;5013387;28;20478;-71
2023/05/24 00:19:21;;;;;;;9.38;2.17;;;10.10;99.90;;;;;;5013262;28;20456;-71
2023/05/24 00:21:47;;;;;;;;;;;10.10;99.90;;;;;;5013875;28;20029;-71
2023/05/24 00:24:13;;;;;;;20.77;1.90;;;10.10;99.90;;;;;;5013419;28;20396;-71
2023/05/24 00:26:40;;;;;;;7.63;2.30;;;10.10;99.90;;;;;;5012636;28;20061;-71
2023/05/24 00:29:05;;;;;;;6.65;2.45;;;10.00;99.90;;;;;;5012513;28;20030;-71
2023/05/24 00:31:31;;;;;;;13.90;2.58;;;10.10;99.90;;;;;;5012521;28;20474;-70
2023/05/24 00:33:57;;;;;;;14.38;2.08;;;10.10;99.90;;;;;;5012646;28;20113;-70
2023/05/24 00:36:22;;;;;;;11.75;2.03;;;10.10;99.90;;;;;;5012303;28;20025;-71
2023/05/24 00:38:48;;;;;;;16.25;2.90;;;10.10;99.90;;;;;;5012385;28;20049;-70
2023/05/24 00:41:14;;;;;;;8.82;1.92;;;10.10;99.90;;;;;;5012363;28;20022;-71
2023/05/24 00:43:42;;;;;;;16.27;3.53;;;10.00;99.90;;;;;;5012420;28;20034;-71
2023/05/24 00:46:35;;;;;;;11.40;2.08;;;10.00;99.90;;;;;;5012348;28;20037;-71
2023/05/24 00:49:01;;;;;;;10.48;2.05;;;10.00;99.90;;;;;;5011868;28;20046;-70
2023/05/24 00:51:27;;;;;;;10.48;2.50;;;10.00;99.90;;;;;;5012266;28;20558;-71
2023/05/24 00:53:53;;;;;;;12.20;2.28;;;10.00;99.90;;;;;;5012178;28;20034;-70
2023/05/24 00:56:19;;;;;;;16.48;2.28;;;10.00;99.90;;;;;;5012153;28;20394;-71
2023/05/24 00:58:45;;;;;;;19.80;3.25;;;9.90;99.90;;;;;;5012134;28;20037;-73
2023/05/24 01:01:11;;;;;;;13.45;3.83;;;9.90;99.90;;;;;;5014121;28;20022;-72
2023/05/24 01:03:38;;;;;;;11.07;2.67;;;9.90;99.90;;;;;;5015258;28;20410;-71
2023/05/24 01:06:06;;;;;;;22.27;3.03;;;9.90;99.90;;;;;;5015007;28;20034;-70
2023/05/24 01:08:37;;;;;;;;;;;10.00;99.90;;;;;;5015909;28;20030;-70
2023/05/24 01:11:21;;;;;;;13.85;2.05;;;9.90;99.90;;;;;;5015508;28;19952;-71
2023/05/24 01:14:28;;;;;;;13.07;3.25;;;9.80;99.90;;;;;;5030684;28;20034;-71
2023/05/24 01:17:15;;;;;;;7.38;2.55;;;9.80;99.90;;;;;;5015353;28;20045;-71
2023/05/24 01:19:58;;;;;;;12.32;3.95;;;9.80;99.90;;;;;;5015438;28;20049;-70
2023/05/24 01:22:38;;;;;;;11.65;2.58;;;9.80;99.90;;;;;;5015488;28;20022;-70
2023/05/24 01:25:04;;;;;;;11.32;3.05;;;9.70;99.90;;;;;;5015154;28;20041;-70
2023/05/24 01:27:33;;;;;;;17.88;2.55;;;9.60;99.90;;;;;;4978544;28;1081127;-71
2023/05/24 01:30:00;;;;;;;21.42;3.63;;;9.60;99.90;;;;;;5016540;28;20394;-70
2023/05/24 01:32:27;;;;;;;23.25;3.90;;;9.60;99.90;;;;;;5016710;28;20053;-71
2023/05/24 01:34:52;;;;;;;9.27;2.42;;;9.60;99.90;;;;;;5016404;28;20117;-71
2023/05/24 01:37:18;;;;;;;12.55;2.58;;;9.60;99.90;;;;;;5016254;28;20054;-71
2023/05/24 01:39:44;;;;;;;13.02;2.10;;;9.50;99.90;;;;;;5016308;28;20021;-71
2023/05/24 01:42:39;;;;;;;15.50;2.22;;;9.50;99.90;;;;;;5016235;28;20076;-71
2023/05/24 01:45:21;;;;;;;7.35;2.45;;;9.50;99.90;;;;;;5016533;28;20033;-71
2023/05/24 01:48:03;;;;;;;12.38;2.90;;;9.50;99.90;;;;;;5016166;28;20108;-71
2023/05/24 01:50:35;;;;;;;16.48;2.83;;;9.40;99.90;;;;;;5016178;28;20109;-71
2023/05/24 01:53:11;;;;;;;14.77;3.17;;;9.40;99.90;;;;;;5031202;28;20038;-70
2023/05/24 01:55:38;;;;;;;11.15;2.78;;;9.40;99.90;;;;;;5031301;28;20541;-70
2023/05/24 01:58:05;;;;;;;13.25;2.75;;;9.50;99.90;;;;;;5016008;28;20026;-71
2023/05/24 02:00:32;;;;;;;9.18;2.63;;;9.50;99.90;;;;;;5015950;28;20036;-71
2023/05/24 02:02:58;;;;;;;15.57;2.90;;;9.60;99.90;;;;;;5015937;28;20061;-71
2023/05/24 02:05:24;;;;;;;14.80;2.50;;;9.60;99.90;;;;;;5015813;28;20276;-71
2023/05/24 02:07:49;;;;;;;16.33;3.95;;;9.70;99.90;;;;;;5015832;28;20037;-71
2023/05/24 02:10:15;;;;;;;8.73;2.13;;;9.70;99.90;;;;;;5015647;28;20033;-71
2023/05/24 02:12:41;;;;;;;14.70;2.75;;;9.70;99.90;;;;;;5030464;28;20030;-71
2023/05/24 02:15:08;;;;;;;15.88;2.72;;;9.70;99.90;;;;;;5015877;28;20018;-71
2023/05/24 02:17:34;;;;;;;14.27;2.50;;;9.60;99.90;;;;;;5014332;28;20018;-71
2023/05/24 02:20:00;;;;;;;14.23;3.05;;;9.60;99.90;;;;;;5015586;28;20109;-71
2023/05/24 02:22:26;;;;;;;17.10;3.28;;;9.60;99.90;;;;;;5015526;28;20153;-72
2023/05/24 02:24:52;;;;;;;12.43;2.67;;;9.60;99.90;;;;;;5015470;28;20506;-71
2023/05/24 02:27:18;;;;;;;7.57;2.10;;;9.50;99.90;;;;;;5015263;28;20045;-71
2023/05/24 02:29:43;;;;;;;9.43;3.05;;;9.50;99.90;;;;;;5015436;28;20121;-71
2023/05/24 02:32:09;;;;;;;9.93;2.40;;;9.50;99.90;;;;;;5015360;28;20100;-72
2023/05/24 02:34:35;;;;;;;16.45;2.85;;;9.50;99.90;;;;;;5015359;28;20030;-71
2023/05/24 02:37:01;;;;;;;16.83;3.60;;;9.50;99.90;;;;;;5030410;28;20030;-71
2023/05/24 02:39:26;;;;;;;17.67;3.65;;;9.40;99.90;;;;;;5015265;28;20034;-72
2023/05/24 02:41:52;;;;;;;12.57;2.58;;;9.40;99.90;;;;;;5015126;28;20100;-72
2023/05/24 02:44:18;;;;;;;14.93;2.90;;;9.40;99.90;;;;;;5030405;28;20109;-72
2023/05/24 02:46:43;;;;;;;15.52;3.13;;;9.50;99.90;;;;;;5015100;28;20026;-72
2023/05/24 02:49:09;;;;;;;5.03;2.13;;;9.50;99.90;;;;;;5015147;28;20034;-72
2023/05/24 02:51:35;;;;;;;17.17;3.75;;;9.40;99.90;;;;;;5015315;28;20383;-72
2023/05/24 02:54:02;;;;;;;9.77;2.28;;;9.40;99.90;;;;;;5014872;28;20494;-71
2023/05/24 02:56:28;;;;;;;17.13;3.05;;;9.40;99.90;;;;;;5014967;28;20039;-71
2023/05/24 02:58:54;;;;;;;17.83;3.83;;;9.40;99.90;;;;;;5030061;28;20026;-71
2023/05/24 03:01:21;;;;;;;13.05;2.42;;;9.40;99.90;;;;;;5014858;28;20416;-71
2023/05/24 03:03:47;;;;;;;6.07;2.92;;;9.50;99.90;;;;;;5014815;28;20092;-72
2023/05/24 03:06:12;;;;;;;13.65;3.10;;;9.60;99.90;;;;;;5014714;28;20033;-72
2023/05/24 03:08:39;;;;;;;15.65;2.80;;;9.60;99.90;;;;;;5014730;28;20037;-71
2023/05/24 03:11:05;;;;;;;13.40;2.58;;;9.60;99.90;;;;;;5014641;28;20036;-72
2023/05/24 03:13:30;;;;;;;8.98;3.38;;;9.60;99.90;;;;;;5014572;28;20121;-72
2023/05/24 03:15:56;;;;;;;18.35;3.33;;;9.60;99.90;;;;;;5014560;28;20026;-71
2023/05/24 03:18:22;;;;;;;10.32;3.13;;;9.50;99.90;;;;;;5014588;28;20036;-72
2023/05/24 03:20:47;;;;;;;14.23;3.55;;;9.50;99.90;;;;;;5014437;28;20029;-73
2023/05/24 03:23:13;;;;;;;18.75;2.97;;;9.50;99.90;;;;;;5013619;28;20037;-72
2023/05/24 03:25:39;;;;;;;14.30;3.42;;;9.50;99.90;;;;;;5014347;28;20088;-71
2023/05/24 03:28:05;;;;;;;13.65;3.08;;;9.40;99.90;;;;;;5014038;28;20042;-71
2023/05/24 03:30:31;;;;;;;13.00;3.38;;;9.40;99.90;;;;;;5014355;28;20026;-71
2023/05/24 03:32:57;;;;;;;13.68;2.80;;;9.40;99.90;;;;;;5014175;28;20057;-70
2023/05/24 03:35:23;;;;;;;16.38;2.88;;;9.40;99.90;;;;;;5014197;28;20047;-72
2023/05/24 03:37:48;;;;;;;12.90;3.28;;;9.50;99.90;;;;;;5014076;28;20104;-71
2023/05/24 03:40:14;;;;;;;9.98;3.20;;;9.50;99.90;;;;;;5014172;28;20569;-71
2023/05/24 03:42:40;;;;;;;10.57;2.70;;;9.50;99.90;;;;;;5014179;28;20045;-73
2023/05/24 03:45:06;;;;;;;10.75;2.75;;;9.60;99.90;;;;;;5014064;28;20022;-72
2023/05/24 03:47:32;;;;;;;7.78;2.63;;;9.60;99.90;;;;;;5013981;28;20482;-72
2023/05/24 03:49:57;;;;;;;12.50;2.58;;;9.60;99.90;;;;;;5013955;28;20034;-72
2023/05/24 03:52:23;;;;;;;16.38;3.65;;;9.70;99.90;;;;;;5029137;28;20034;-71
2023/05/24 03:54:49;;;;;;;7.72;2.65;;;9.70;99.90;;;;;;5013891;28;20030;-71
2023/05/24 03:57:15;;;;;;;8.63;3.17;;;9.70;99.90;;;;;;5013857;28;20474;-70
2023/05/24 03:59:40;;;;;;;9.20;2.40;;;9.70;99.90;;;;;;5013817;28;20022;-72
2023/05/24 04:02:06;;;;;;;13.45;3.33;;;9.70;99.90;;;;;;5013758;28;20100;-71
2023/05/24 04:04:32;;;;;;;18.50;3.35;;;9.70;99.90;;;;;;5013637;28;20451;-72
2023/05/24 04:06:57;;;;;;;19.75;3.13;;;9.70;99.90;;;;;;5013631;28;20026;-72
2023/05/24 04:09:24;;;;;;;12.13;3.53;;;9.60;99.90;;;;;;5013626;28;20030;-71
2023/05/24 04:11:50;;;;;;;13.73;2.92;;;9.50;99.90;;;;;;5013522;28;20033;-72
2023/05/24 04:14:15;;;;;;;12.43;3.72;;;9.50;99.90;;;;;;5013523;28;20402;-71
2023/05/24 04:16:43;;;;;;;23.45;2.88;;;9.60;99.90;;;;;;5013540;28;20022;-71
2023/05/24 04:19:10;;;;;;;17.40;3.33;;;9.60;99.90;;;;;;5013544;28;20034;-71
2023/05/24 04:21:36;;;;;;;10.70;2.88;;;9.60;99.90;;;;;;5013407;28;20033;-72
2023/05/24 04:24:03;;;;;;;15.63;2.75;;;9.60;99.90;;;;;;5013391;28;20367;-72
2023/05/24 04:26:29;;;;;;;17.77;3.15;;;9.60;99.90;;;;;;5013199;28;20129;-71
2023/05/24 04:28:55;;;;;;;20.17;2.83;;;9.60;99.90;;;;;;5013345;28;20054;-72
2023/05/24 04:31:20;;;;;;;34.22;4.18;;;9.70;99.90;;;;;;5013381;28;20030;-72
2023/05/24 04:33:46;;;;;;;17.92;3.20;;;9.70;99.90;;;;;;5013104;28;20026;-71
2023/05/24 04:36:12;;;;;;;12.75;3.15;;;9.70;99.90;;;;;;5013102;28;20544;-71
2023/05/24 04:38:39;;;;;;;20.92;2.78;;;9.90;99.90;;;;;;5013182;28;20026;-72
2023/05/24 04:41:05;;;;;;;16.90;3.15;;;9.80;99.90;;;;;;5013262;28;20049;-72
2023/05/24 04:43:33;;;;;;;14.13;2.90;;;9.90;99.90;;;;;;5013385;28;20508;-72
2023/05/24 04:45:58;;;;;;;13.05;2.90;;;9.90;99.90;;;;;;5013171;28;20041;-72
2023/05/24 04:48:24;;;;;;;13.73;3.50;;;9.90;99.90;;;;;;5013060;28;20026;-72
2023/05/24 04:50:51;;;;;;;16.75;3.42;;;10.00;99.90;;;;;;5013006;28;20026;-72
2023/05/24 04:53:17;;;;;;;20.65;3.38;;;10.00;99.90;;;;;;5012987;28;20045;-71
2023/05/24 04:55:43;;;;;;;21.02;2.97;;;10.10;99.90;;;;;;5013015;28;20502;-70
2023/05/24 04:58:08;;;;;;;12.18;3.55;;;10.20;99.90;;;;;;5013094;28;20026;-72
2023/05/24 05:00:34;;;;;;;10.75;2.80;;;10.20;99.90;;;;;;5013012;28;20033;-71
2023/05/24 05:03:00;;;;;;;20.88;4.03;;;10.40;99.90;;;;;;5013047;28;20026;-71
2023/05/24 05:05:26;;;;;;;15.82;3.70;;;10.40;99.90;;;;;;5012980;28;20030;-72
2023/05/24 05:07:51;;;;;;;15.07;3.42;;;10.40;99.90;;;;;;5012976;28;20509;-71
2023/05/24 05:10:17;;;;;;;16.67;4.20;;;10.50;99.90;;;;;;5013783;28;20041;-72
2023/05/24 05:12:43;;;;;;;14.68;3.88;;;10.50;99.90;;;;;;5014773;28;20062;-72
2023/05/24 05:15:09;;;;;;;9.05;3.60;;;10.60;99.90;;;;;;5014956;28;20026;-71
2023/05/24 05:17:35;;;;;;;14.05;3.53;;;10.60;99.90;;;;;;5014579;28;20490;-70
2023/05/24 05:20:02;;;;;;;11.73;3.22;;;10.70;99.90;;;;;;5014546;28;20018;-71
2023/05/24 05:22:28;;;;;;;15.80;3.22;;;10.70;99.90;;;;;;5014305;28;20068;-71
2023/05/24 05:24:53;;;;;;;14.38;3.15;;;10.70;99.90;;;;;;5014704;28;20049;-71
2023/05/24 05:27:19;;;;;;;15.82;3.50;;;10.80;99.90;;;;;;5014800;28;20050;-71
2023/05/24 05:29:45;;;;;;;15.10;3.90;;;10.80;99.90;;;;;;5016785;28;20033;-70
2023/05/24 05:32:10;;;;;;;11.35;3.05;;;10.80;99.90;;;;;;5020846;28;20022;-72
2023/05/24 05:34:36;;;;;;;15.25;2.90;;;10.90;99.90;;;;;;5020608;28;20036;-74
2023/05/24 05:37:01;;;;;;;13.63;3.97;;;11.00;99.90;;;;;;5021209;28;20382;-71
2023/05/24 05:39:27;;;;;;;14.95;2.88;;;11.20;99.90;;;;;;5022235;28;20030;-72
2023/05/24 05:41:53;;;;;;;11.23;3.92;;;11.20;99.90;;;;;;5022477;28;20029;-72
2023/05/24 05:44:19;;;;;;;21.33;3.60;;;11.40;99.90;;;;;;5037832;28;20026;-73
2023/05/24 05:46:44;;;;;;;9.93;3.03;;;11.40;99.90;;;;;;5022696;28;20022;-73
2023/05/24 05:49:11;;;;;;;9.82;2.97;;;11.40;99.90;;;;;;5026007;28;20081;-73
2023/05/24 05:51:37;;;;;;;18.98;3.40;;;11.40;99.90;;;;;;5024126;28;20025;-72
2023/05/24 05:54:04;;;;;;;19.90;3.15;;;11.40;99.90;;;;;;5023474;28;20130;-73
2023/05/24 05:56:30;;;;;;;16.35;4.40;;;11.50;99.90;;;;;;5024356;28;20049;-72
2023/05/24 05:58:55;;;;;;;12.35;3.33;;;11.60;99.90;;;;;;5023175;28;20026;-74
2023/05/24 06:01:24;;;;;;;13.55;3.67;;;11.70;99.90;;;;;;5023596;28;20029;-72
2023/05/24 06:03:50;;;;;;;14.68;4.03;;;11.90;99.90;;;;;;5023164;28;20028;-73
2023/05/24 06:06:16;;;;;;;16.80;4.30;;;12.00;99.90;;;;;;5022730;28;20022;-73
2023/05/24 06:08:41;;;;;;;8.07;2.60;;;12.10;99.90;;;;;;5028860;28;20030;-72
2023/05/24 06:11:07;;;;;;;16.25;3.70;;;12.20;99.90;;;;;;5024856;28;20052;-72
2023/05/24 06:13:32;;;;;;;18.67;3.63;;;12.20;99.90;;;;;;5023797;28;20024;-73
2023/05/24 06:15:59;;;;;;;17.40;3.55;;;12.20;99.90;;;;;;5025217;28;20433;-73
2023/05/24 06:18:26;;;;;;;24.20;4.17;;;12.60;99.90;;;;;;5041848;28;20026;-72
2023/05/24 06:20:52;;;;;;;13.18;3.40;;;12.70;99.90;;;;;;5028796;28;20036;-72
2023/05/24 06:23:18;;;;;;;11.65;4.13;;;12.80;99.90;;;;;;5027294;28;20387;-72
2023/05/24 06:25:44;;;;;;;13.57;3.13;;;12.70;99.90;;;;;;5026822;28;20034;-72
2023/05/24 06:28:09;;;;;;;13.90;3.22;;;12.50;99.90;;;;;;5025739;28;20060;-72
2023/05/24 06:30:35;;;;;;;12.70;3.17;;;12.40;99.90;;;;;;5025945;28;20034;-73
2023/05/24 06:33:01;;;;;;;8.63;2.17;;;12.40;99.90;;;;;;5026509;28;20025;-72
2023/05/24 06:35:27;;;;;;;19.42;3.63;;;12.40;99.90;;;;;;5040277;28;20034;-73
2023/05/24 06:37:52;;;;;;;13.85;2.88;;;12.50;99.90;;;;;;5024822;28;20029;-73
2023/05/24 06:40:18;;;;;;;18.60;3.00;;;12.40;99.90;;;;;;5023178;28;20048;-73
2023/05/24 06:42:43;;;;;;;17.45;2.88;;;12.50;99.90;;;;;;5025416;28;20026;-73
2023/05/24 06:45:09;;;;;;;11.02;3.03;;;12.80;99.90;;;;;;5022455;28;20026;-72
2023/05/24 06:47:35;;;;;;;11.95;3.38;;;13.50;99.90;;;;;;5022070;28;20056;-73
2023/05/24 06:50:03;;;;;;;8.48;2.92;;;14.30;99.90;;;;;;5022616;28;20096;-73
2023/05/24 06:52:29;;;;;;;15.02;2.80;;;15.30;99.90;;;;;;5019935;28;20029;-73
2023/05/24 06:54:55;;;;;;;16.35;4.40;;;15.70;99.90;;;;;;5022403;28;20052;-73
2023/05/24 06:57:21;;;;;;;5.97;2.47;;;15.60;99.90;;;;;;5024636;28;20018;-73
2023/05/24 06:59:46;;;;;;;12.73;2.40;;;16.10;99.90;;;;;;5024980;28;20053;-73
2023/05/24 07:02:12;;;;;;;9.63;2.20;;;15.90;99.90;;;;;;5022700;28;20129;-72
2023/05/24 07:04:39;;;;;;;10.75;2.50;;;15.70;99.90;;;;;;5023982;28;20026;-73
2023/05/24 07:07:06;;;;;;;14.13;2.58;;;15.00;99.90;;;;;;5042592;28;20022;-73
2023/05/24 07:09:32;;;;;;;6.57;2.10;;;14.60;99.90;;;;;;5026775;28;20018;-73
2023/05/24 07:11:58;;;;;;;16.63;2.50;;;15.10;99.90;;;;;;5022122;28;20438;-73
2023/05/24 07:14:24;;;;;;;9.10;2.80;;;16.10;99.90;;;;;;5018289;28;20128;-72
2023/05/24 07:16:50;;;;;;;9.35;2.75;;;16.80;99.90;;;;;;5015401;28;20025;-71
2023/05/24 07:19:16;;;;;;;12.93;2.08;;;17.30;99.90;;;;;;5015097;28;20374;-72
2023/05/24 07:21:41;;;;;;;9.25;1.95;;;17.60;99.90;;;;;;5015144;28;20021;-72
2023/05/24 07:24:07;;;;;;;11.00;2.22;;;17.70;99.90;;;;;;5014779;28;20505;-71
2023/05/24 07:26:33;;;;;;;4.38;1.90;;;17.30;99.90;;;;;;5014541;28;20065;-73
2023/05/24 07:28:58;;;;;;;7.03;2.13;;;16.70;99.90;;;;;;5030047;28;20033;-72
2023/05/24 07:31:26;;;;;;;11.70;1.88;;;16.80;99.90;;;;;;5015164;28;20045;-72
2023/05/24 07:33:51;;;;;;;12.68;1.60;;;16.60;99.90;;;;;;5014742;28;20041;-73
2023/05/24 07:36:17;;;;;;;9.10;1.83;;;16.10;99.90;;;;;;5029882;28;20026;-75
2023/05/24 07:38:43;;;;;;;12.38;2.72;;;15.40;99.90;;;;;;5014655;28;20045;-74
2023/05/24 07:41:09;;;;;;;9.70;2.83;;;15.00;99.90;;;;;;5014860;28;20025;-71
2023/05/24 07:43:36;;;;;;;9.18;2.70;;;14.70;99.90;;;;;;5029688;28;20026;-71
2023/05/24 07:46:02;;;;;;;7.78;1.70;;;14.60;99.90;;;;;;5029806;28;20033;-72
2023/05/24 07:48:27;;;;;;;7.47;1.75;;;14.60;99.90;;;;;;5014620;28;20030;-72
2023/05/24 07:50:53;;;;;;;13.77;3.15;;;14.40;99.90;;;;;;5013941;28;20030;-71
2023/05/24 07:53:19;;;;;;;11.43;2.35;;;14.50;99.90;;;;;;5014010;28;20100;-72
2023/05/24 07:55:45;;;;;;;6.75;2.08;;;14.60;99.90;;;;;;5029188;28;20046;-72
2023/05/24 07:58:11;;;;;;;6.35;2.35;;;14.80;99.90;;;;;;5014160;28;20084;-72
2023/05/24 08:00:37;;;;;;;6.97;1.67;;;14.80;99.90;;;;;;5014194;28;20026;-72
2023/05/24 08:03:04;;;;;;;8.48;1.77;;;14.50;99.90;;;;;;5014103;28;20099;-72
2023/05/24 08:05:30;;;;;;;14.63;2.30;;;14.20;99.90;;;;;;5014269;28;20029;-72
2023/05/24 08:07:56;;;;;;;9.43;2.10;;;14.00;99.90;;;;;;5013877;28;20108;-73
2023/05/24 08:10:22;;;;;;;19.85;2.70;;;13.90;99.90;;;;;;5013680;28;20084;-73
2023/05/24 08:12:50;;;;;;;14.02;3.03;;;14.00;99.90;;;;;;5014376;28;20034;-72
2023/05/24 08:15:16;;;;;;;9.93;1.77;;;14.00;99.90;;;;;;5014334;28;20386;-73
2023/05/24 08:17:42;;;;;;;16.52;2.42;;;14.10;99.90;;;;;;5014687;28;20029;-71
2023/05/24 08:20:14;;;;;;;16.45;2.25;;;14.10;99.90;;;;;;5014354;28;20036;-71
2023/05/24 08:22:41;;;;;;;6.68;2.45;;;14.10;99.90;;;;;;5014434;28;20021;-72
2023/05/24 08:25:07;;;;;;;14.25;1.92;;;14.00;99.90;;;;;;5014187;28;20021;-71
2023/05/24 08:27:33;;;;;;;7.03;1.90;;;14.20;99.90;;;;;;5013921;28;20532;-72
2023/05/24 08:29:59;;;;;;;8.40;2.15;;;14.40;99.90;;;;;;5014189;28;20030;-71
2023/05/24 08:32:24;;;;;;;12.50;2.55;;;14.70;99.90;;;;;;5014164;28;20076;-71
2023/05/24 08:34:50;;;;;;;10.32;2.10;;;15.00;99.90;;;;;;5029386;28;20450;-72
2023/05/24 08:37:19;;;;;;;14.38;2.58;;;15.20;99.90;;;;;;5014387;28;20077;-72
2023/05/24 08:39:45;;;;;;;10.18;2.50;;;15.40;99.90;;;;;;5014010;28;20363;-73
2023/05/24 08:42:11;;;;;;;8.25;1.80;;;15.80;99.90;;;;;;5029317;28;20040;-78
2023/05/24 08:44:51;;;;;;;10.82;2.28;;;15.90;99.90;;;;;;5013922;28;20459;-74
2023/05/24 08:47:20;;;;;;;11.90;2.00;;;16.00;99.90;;;;;;5013760;28;20025;-75
2023/05/24 08:49:46;;;;;;;7.53;1.90;;;16.00;99.90;;;;;;5013849;28;20029;-71
2023/05/24 08:52:13;;;;;;;5.10;1.43;;;15.90;99.90;;;;;;5013848;28;20514;-71
2023/05/24 08:54:40;;;;;;;8.13;2.00;;;15.60;99.90;;;;;;5014097;28;20767;-75
2023/05/24 08:57:06;;;;;;;7.53;1.87;;;16.10;99.90;;;;;;5029245;28;20022;-72
2023/05/24 08:59:32;;;;;;;6.60;1.52;;;16.10;99.90;;;;;;5013985;28;20025;-72
2023/05/24 09:02:00;;;;;;;12.38;2.55;;;16.30;99.90;;;;;;5013404;28;20030;-71
2023/05/24 09:04:26;;;;;;;6.97;1.92;;;17.10;99.90;;;;;;5013490;28;20018;-72
2023/05/24 09:06:54;;;;;;;8.57;1.67;;;17.50;99.90;;;;;;5013696;28;20072;-71
2023/05/24 09:09:23;;;;;;;7.65;1.75;;;17.50;99.90;;;;;;5027585;28;20487;-73
2023/05/24 09:11:52;;;;;;;7.80;2.10;;;17.40;99.90;;;;;;5029167;28;20022;-71
2023/05/24 09:14:18;;;;;;;10.23;2.10;;;16.60;99.90;;;;;;5027433;28;20052;-72
2023/05/24 09:16:45;;;;;;;9.50;2.20;;;16.40;99.90;;;;;;5022983;28;20018;-72
2023/05/24 09:19:11;;;;;;;10.48;2.03;;;16.00;99.90;;;;;;5014602;28;20045;-71
2023/05/24 09:21:36;;;;;;;5.85;1.92;;;15.90;99.90;;;;;;5031200;28;20022;-72
2023/05/24 09:24:07;;;;;;;9.00;1.80;;;15.80;99.90;;;;;;5018444;28;20368;-73
2023/05/24 09:26:35;;;;;;;6.45;1.85;;;16.00;99.90;;;;;;5018848;28;20125;-72
2023/05/24 09:29:01;;;;;;;11.68;1.98;;;16.50;99.90;;;;;;5019338;28;20030;-73
2023/05/24 09:31:34;;;;;;;5.05;1.50;;;16.60;99.90;;;;;;5018869;28;20033;-73
2023/05/24 09:34:00;;;;;;;9.32;1.77;;;16.70;99.90;;;;;;5018348;28;20034;-72
2023/05/24 09:36:28;;;;;;;7.30;1.80;;;16.90;99.90;;;;;;5016203;28;20116;-71
2023/05/24 09:39:17;;;;;;;12.20;2.05;;;17.10;99.90;;;;;;5018088;28;20540;-72
2023/05/24 09:41:44;;;;;;;7.97;1.98;;;17.20;99.90;;;;;;5017272;28;20474;-71
2023/05/24 09:44:13;;;;;;;11.07;2.53;;;17.20;99.90;;;;;;5017279;28;20076;-72
2023/05/24 09:46:38;;;;;;;7.25;2.10;;;16.90;99.90;;;;;;5017278;28;20272;-75
2023/05/24 09:49:05;;;;;;;12.32;2.33;;;16.50;99.90;;;;;;5016767;28;20373;-73
2023/05/24 09:51:32;;;;;;;9.68;1.80;;;16.00;99.90;;;;;;5016664;28;20022;-73
2023/05/24 09:54:01;;;;;;;8.52;2.38;;;15.80;99.90;;;;;;5016529;28;20037;-71
2023/05/24 09:56:28;;;;;;;7.85;2.50;;;15.70;99.90;;;;;;5016164;28;20113;-72
2023/05/24 09:58:55;;;;;;;10.85;2.17;;;15.90;99.90;;;;;;5016439;28;20104;-73
2023/05/24 10:01:24;;;;;;;3.92;1.70;;;15.70;99.90;;;;;;5016301;28;20014;-72
2023/05/24 10:03:53;;;;;;;9.23;2.38;;;15.80;99.90;;;;;;5031583;28;20486;-73
2023/05/24 10:06:19;;;;;;;9.85;1.75;;;16.00;99.90;;;;;;5016636;28;20018;-72
2023/05/24 10:08:47;;;;;;;9.27;2.08;;;16.30;99.90;;;;;;5031613;28;20032;-72
2023/05/24 10:11:13;;;;;;;10.02;2.10;;;16.70;99.90;;;;;;5016220;28;20097;-73
2023/05/24 10:13:42;;;;;;;6.45;2.08;;;16.90;99.90;;;;;;5015895;28;20105;-73
2023/05/24 10:16:07;;;;;;;5.30;2.35;;;16.90;99.90;;;;;;5031101;28;20426;-72
2023/05/24 10:18:33;;;;;;;9.68;2.92;;;17.00;99.90;;;;;;5015887;28;20014;-72
2023/05/24 10:21:01;;;;;;;6.85;2.67;;;17.00;99.90;;;;;;5015910;28;20022;-72
2023/05/24 10:23:30;;;;;;;8.77;2.15;;;17.00;99.90;;;;;;5016188;28;20018;-72
2023/05/24 10:26:05;;;;;;;8.43;2.55;;;17.40;99.90;;;;;;5015804;28;20053;-72
2023/05/24 10:28:33;;;;;;;11.88;2.92;;;17.70;99.90;;;;;;5015556;28;20038;-71
2023/05/24 10:31:09;;;;;;;8.13;2.38;;;18.00;99.90;;;;;;5015833;28;20034;-72
2023/05/24 10:33:36;;;;;;;11.35;2.13;;;18.40;99.90;;;;;;5015293;28;20081;-73
2023/05/24 10:36:08;;;;;;;6.93;2.38;;;18.30;99.90;;;;;;5015478;28;20399;-71
2023/05/24 10:38:36;;;;;;;9.23;2.05;;;18.40;99.90;;;;;;5015633;28;20474;-72
2023/05/24 10:41:02;;;;;;;15.13;2.80;;;18.10;99.90;;;;;;5015409;28;20023;-72
2023/05/24 10:43:28;;;;;;;11.98;2.70;;;17.90;99.90;;;;;;5015290;28;20486;-71
2023/05/24 10:45:55;;;;;;;12.10;2.05;;;17.90;99.90;;;;;;5013981;28;20032;-72
2023/05/24 10:48:27;;;;;;;6.50;2.25;;;18.10;99.90;;;;;;5015289;28;20030;-72
2023/05/24 10:50:52;;;;;;;10.57;2.72;;;18.00;99.90;;;;;;5030239;28;20049;-72
2023/05/24 10:53:21;;;;;;;8.70;2.08;;;17.70;99.90;;;;;;5015133;28;20478;-73
2023/05/24 10:55:58;;;;;;;3.95;1.80;;;17.50;99.90;;;;;;5015071;28;20071;-72
2023/05/24 10:58:43;;;;;;;5.53;2.27;;;17.50;99.90;;;;;;5015010;28;20368;-72
2023/05/24 11:01:32;;;;;;;5.82;2.10;;;17.80;99.90;;;;;;5014928;28;20387;-72
2023/05/24 11:04:17;;;;;;;8.40;1.88;;;17.90;99.90;;;;;;5015080;28;20014;-73
2023/05/24 11:06:55;;;;;;;6.10;1.88;;;17.30;99.90;;;;;;5014824;28;20062;-71
2023/05/24 11:09:21;;;;;;;6.38;2.30;;;17.10;99.90;;;;;;5014993;28;20534;-72
2023/05/24 11:11:49;;;;;;;6.65;2.05;;;17.10;99.90;;;;;;5014655;28;20028;-74
2023/05/24 11:14:21;;;;;;;12.13;3.05;;;17.20;99.90;;;;;;5014852;28;20038;-72
2023/05/24 11:16:48;;;;;;;5.78;1.80;;;17.10;99.90;;;;;;5014883;28;20061;-71
2023/05/24 11:19:19;;;;;;;9.23;2.35;;;16.90;99.90;;;;;;5014644;28;20061;-71
2023/05/24 11:21:47;;;;;;;7.43;1.77;;;16.70;99.90;;;;;;5014684;28;20037;-72
2023/05/24 11:24:17;;;;;;;13.88;2.10;;;16.60;99.90;;;;;;5014961;28;20041;-72
2023/05/24 11:26:43;;;;;;;9.30;2.00;;;16.50;99.90;;;;;;5014663;28;20461;-73
2023/05/24 11:29:12;;;;;;;9.40;2.72;;;16.30;99.90;;;;;;5014487;28;20044;-72
2023/05/24 11:31:38;;;;;;;6.38;1.58;;;16.20;99.90;;;;;;5014530;28;20401;-72
2023/05/24 11:34:08;;;;;;;9.60;2.17;;;16.10;99.90;;;;;;5014318;28;20526;-71
2023/05/24 11:36:35;;;;;;;8.70;2.30;;;16.00;99.90;;;;;;5029663;28;20032;-71
2023/05/24 11:39:02;;;;;;;11.05;3.05;;;16.10;99.90;;;;;;5014330;28;20022;-71
2023/05/24 11:41:28;;;;;;;11.50;2.53;;;16.10;99.90;;;;;;5014372;28;20022;-72
2023/05/24 11:43:53;;;;;;;14.10;2.45;;;16.20;99.90;;;;;;5013559;28;20053;-71
2023/05/24 11:46:19;;;;;;;9.93;2.42;;;16.30;99.90;;;;;;5014128;28;20026;-72
2023/05/24 11:48:58;;;;;;;14.38;2.80;;;16.20;99.90;;;;;;5014136;28;20034;-72
2023/05/24 11:51:32;;;;;;;24.27;2.33;;;16.00;99.90;;;;;;5014084;28;20033;-72
2023/05/24 11:53:59;;;;;;;12.75;3.22;;;15.90;99.90;;;;;;5014027;28;20541;-71
2023/05/24 11:56:27;;;;;;;13.18;2.42;;;16.00;99.90;;;;;;5014004;28;20030;-71
2023/05/24 11:59:14;;;;;;;5.35;1.98;;;16.00;99.90;;;;;;5013872;28;20391;-72
2023/05/24 12:01:40;;;;;;;7.57;2.15;;;15.90;99.90;;;;;;5028716;28;20041;-72
2023/05/24 12:04:08;;;;;;;13.82;2.17;;;15.80;99.90;;;;;;5013796;28;20054;-72
2023/05/24 12:06:43;;;;;;;7.15;2.80;;;15.70;99.90;;;;;;5012416;28;20101;-72
2023/05/24 12:09:15;;;;;;;3.50;1.30;;;15.80;99.90;;;;;;5013414;28;20485;-72
2023/05/24 12:11:43;;;;;;;12.55;3.45;;;15.70;99.90;;;;;;5013588;28;20076;-71
2023/05/24 12:14:13;;;;;;;10.35;1.70;;;15.70;99.90;;;;;;5013515;28;20565;-71
2023/05/24 12:16:41;;;;;;;5.30;1.77;;;15.70;99.90;;;;;;5028753;28;20029;-72
2023/05/24 12:19:06;;;;;;;;;;;15.80;99.90;;;;;;5014072;28;20541;-72
2023/05/24 12:21:33;;;;;;;4.35;1.50;;;15.80;99.90;;;;;;5028790;28;19906;-72
2023/05/24 12:24:14;;;;;;;12.20;2.60;;;15.80;99.90;;;;;;5013564;28;20453;-72
2023/05/24 12:26:41;;;;;;;4.65;1.90;;;15.90;99.90;;;;;;5013320;28;20025;-72
2023/05/24 12:29:08;;;;;;;8.57;2.17;;;16.10;99.90;;;;;;5013476;28;20045;-71
2023/05/24 12:31:34;;;;;;;5.65;2.10;;;16.20;99.90;;;;;;5013470;28;20029;-72
2023/05/24 12:34:00;;;;;;;9.65;2.05;;;16.20;99.90;;;;;;5013167;28;20030;-71
2023/05/24 12:36:28;;;;;;;11.73;1.75;;;16.20;99.90;;;;;;5013200;28;20429;-71
2023/05/24 12:38:57;;;;;;;10.32;1.80;;;16.10;99.90;;;;;;5013211;28;20080;-71
2023/05/24 12:41:22;;;;;;;11.18;2.53;;;16.20;99.90;;;;;;5013152;28;20386;-71
2023/05/24 12:43:50;;;;;;;8.05;1.77;;;16.10;99.90;;;;;;5013456;28;20029;-72
2023/05/24 12:46:16;;;;;;;;;;;16.10;99.90;;;;;;5012332;28;20026;-72
2023/05/24 12:48:42;;;;;;;8.48;2.53;;;16.20;99.90;;;;;;5013105;28;20441;-72